Time;durP1;ratioP1;P1;durP2;ratioP2;P2;SDS_P1;SDS_P2;PMS_P1;PMS_P2;Temp;Humidity;BMP_temperature;BMP_pressure;BME280_temperature;BME280_humidity;BME280_pressure;Samples;Min_cycle;Max_cycle;Signal;HPM_P1;HPM_P2
2022/03/01 00:01:52;;;;;;;50.17;23.40;;;;;;;2.38;48.82;102249.38;6105410;22;100751;-77
2022/03/01 00:04:19;;;;;;;49.90;23.93;;;;;;;2.33;48.79;102237.09;6128828;22;97190;-77
2022/03/01 00:06:45;;;;;;;54.80;24.07;;;;;;;2.36;48.97;102245.00;6129703;22;96778;-77
2022/03/01 00:09:10;;;;;;;52.27;23.67;;;;;;;2.32;49.29;102249.19;6129620;22;97378;-77
2022/03/01 00:11:36;;;;;;;57.47;24.27;;;;;;;2.10;49.08;102215.72;6130886;22;101449;-77
2022/03/01 00:14:02;;;;;;;52.67;24.10;;;;;;;2.32;48.76;102241.41;6155049;22;96546;-78
2022/03/01 00:16:27;;;;;;;53.83;24.17;;;;;;;2.14;48.85;102233.09;6130733;22;97067;-78
2022/03/01 00:18:53;;;;;;;51.83;23.50;;;;;;;2.20;49.43;102247.09;6129226;22;101377;-80
2022/03/01 00:21:19;;;;;;;56.47;24.53;;;;;;;2.19;49.26;102240.19;6105062;22;101564;-77
2022/03/01 00:23:44;;;;;;;53.13;25.10;;;;;;;2.08;49.46;102209.59;6130203;22;96667;-78
2022/03/01 00:26:10;;;;;;;56.40;25.87;;;;;;;2.23;49.42;102246.31;6130193;22;96914;-77
2022/03/01 00:28:36;;;;;;;56.67;24.07;;;;;;;2.21;49.72;102247.97;6104891;22;101410;-77
2022/03/01 00:31:01;;;;;;;51.40;23.63;;;;;;;2.06;49.76;102238.03;6104932;22;100998;-82
2022/03/01 00:33:27;;;;;;;55.20;25.10;;;;;;;2.14;49.46;102249.50;6105268;22;96859;-77
2022/03/01 00:35:53;;;;;;;56.60;25.10;;;;;;;2.09;49.68;102240.72;6130712;22;96803;-76
2022/03/01 00:38:18;;;;;;;57.10;26.20;;;;;;;2.01;49.87;102232.72;6129131;22;97466;-77
2022/03/01 00:40:44;;;;;;;59.07;25.43;;;;;;;2.01;49.84;102230.13;6130099;22;101755;-76
2022/03/01 00:43:09;;;;;;;54.17;24.23;;;;;;;2.05;49.79;102236.28;6103819;22;96881;-77
2022/03/01 00:45:35;;;;;;;65.00;27.60;;;;;;;2.09;50.01;102230.34;6155528;22;96904;-76
2022/03/01 00:48:00;;;;;;;60.20;26.20;;;;;;;1.99;49.87;102238.69;6129909;22;97353;-83
2022/03/01 00:50:26;;;;;;;57.07;25.03;;;;;;;1.93;50.08;102247.13;6104271;22;101341;-77
2022/03/01 00:52:52;;;;;;;62.47;26.57;;;;;;;1.91;50.38;102241.00;6130388;22;97103;-77
2022/03/01 00:55:17;;;;;;;57.03;26.03;;;;;;;1.92;50.04;102247.97;6129553;22;97133;-77
2022/03/01 00:57:43;;;;;;;59.73;26.03;;;;;;;1.83;50.29;102237.28;6129900;22;101156;-77
2022/03/01 01:00:09;;;;;;;55.40;25.20;;;;;;;1.85;50.60;102246.00;6154820;22;97570;-77
2022/03/01 01:02:35;;;;;;;56.03;24.33;;;;;;;1.87;50.65;102253.84;6130464;22;96954;-77
2022/03/01 01:05:00;;;;;;;55.20;24.07;;;;;;;1.74;50.29;102229.22;6105105;22;97178;-82
2022/03/01 01:07:26;;;;;;;57.87;25.03;;;;;;;1.86;50.64;102242.56;6128954;22;98220;-77
2022/03/01 01:09:52;;;;;;;61.10;24.13;;;;;;;1.88;50.81;102251.28;6129363;22;97296;-77
2022/03/01 01:12:18;;;;;;;51.07;23.33;;;;;;;1.90;51.00;102253.94;6129663;22;96682;-77
2022/03/01 01:14:44;;;;;;;51.97;23.67;;;;;;;1.88;50.92;102253.88;6129760;22;96841;-77
2022/03/01 01:17:09;;;;;;;59.20;22.83;;;;;;;1.74;51.10;102247.34;6104819;22;101132;-77
2022/03/01 01:19:35;;;;;;;57.10;22.70;;;;;;;1.89;51.01;102266.00;6129759;22;97085;-78
2022/03/01 01:24:44;;;;;;;52.17;21.93;;;;;;;1.90;50.59;102265.16;6133815;22;96902;-78
2022/03/01 01:27:11;;;;;;;52.53;22.33;;;;;;;1.87;50.71;102262.47;6129159;22;97472;-77
2022/03/01 01:29:36;;;;;;;51.07;21.43;;;;;;;1.94;51.23;102272.19;6154196;22;98325;-77
2022/03/01 01:32:02;;;;;;;53.37;22.43;;;;;;;2.00;50.63;102269.78;6129166;22;96870;-84
2022/03/01 01:34:28;;;;;;;42.17;20.03;;;;;;;1.97;50.59;102268.81;6104521;22;96888;-77
2022/03/01 01:36:54;;;;;;;49.00;22.13;;;;;;;1.96;51.08;102273.13;6104898;22;101303;-77
2022/03/01 01:39:19;;;;;;;50.30;21.63;;;;;;;1.92;51.04;102268.69;6128968;22;101206;-77
2022/03/01 01:41:45;;;;;;;48.97;22.20;;;;;;;1.69;50.89;102236.00;6129538;22;96883;-77
2022/03/01 01:44:11;;;;;;;48.93;21.63;;;;;;;1.70;51.11;102237.75;6129262;22;96811;-77
2022/03/01 01:46:36;;;;;;;47.33;20.23;;;;;;;1.94;51.06;102271.31;6129579;22;97968;-77
2022/03/01 01:49:02;;;;;;;45.87;20.17;;;;;;;1.90;51.00;102280.72;6154827;22;97779;-83
2022/03/01 01:51:28;;;;;;;45.30;21.47;;;;;;;1.85;51.30;102273.63;6131005;22;97119;-78
2022/03/01 01:53:53;;;;;;;46.77;20.50;;;;;;;1.61;51.56;102247.81;6105746;22;96851;-77
2022/03/01 01:56:19;;;;;;;44.40;20.03;;;;;;;1.73;51.23;102269.78;6105397;22;101024;-77
2022/03/01 01:58:44;;;;;;;50.63;20.17;;;;;;;1.78;51.58;102275.13;6130022;22;99104;-77
2022/03/01 02:01:14;;;;;;;42.67;19.80;;;;;;;1.76;51.67;102277.66;6131362;22;97088;-77
2022/03/01 02:03:40;;;;;;;50.50;20.57;;;;;;;1.75;51.37;102272.44;6130581;22;96769;-79
2022/03/01 02:06:06;;;;;;;42.73;19.67;;;;;;;1.71;51.60;102278.34;6155655;22;97274;-77
2022/03/01 02:08:32;;;;;;;45.37;21.87;;;;;;;1.71;51.79;102268.84;6130773;22;97554;-77
2022/03/01 02:10:59;;;;;;;39.30;19.17;;;;;;;1.69;51.86;102275.72;6130994;22;96934;-76
2022/03/01 02:13:25;;;;;;;45.97;20.40;;;;;;;1.69;51.78;102274.84;6106134;22;97212;-76
2022/03/01 02:15:51;;;;;;;47.87;21.53;;;;;;;1.72;51.78;102272.34;6130412;22;101088;-79
2022/03/01 02:18:18;;;;;;;51.03;20.77;;;;;;;1.68;52.12;102263.56;6105648;22;100903;-77
2022/03/01 02:20:43;;;;;;;44.37;19.90;;;;;;;1.64;52.37;102264.31;6130096;22;96982;-77
2022/03/01 02:23:09;;;;;;;46.03;20.60;;;;;;;1.50;51.72;102240.53;6130438;22;97058;-77
2022/03/01 02:25:35;;;;;;;44.43;20.97;;;;;;;1.65;52.05;102270.34;6130489;22;101046;-77
2022/03/01 02:28:01;;;;;;;41.10;18.97;;;;;;;1.71;51.85;102274.03;6131047;22;97515;-77
2022/03/01 02:30:26;;;;;;;48.87;21.07;;;;;;;1.72;52.02;102273.22;6105375;22;97224;-77
2022/03/01 02:32:52;;;;;;;44.07;20.23;;;;;;;1.71;51.72;102267.97;6131354;22;96713;-77
2022/03/01 02:35:18;;;;;;;44.90;21.17;;;;;;;1.69;51.96;102267.06;6105086;22;100880;-77
2022/03/01 02:37:44;;;;;;;41.93;20.13;;;;;;;1.62;52.06;102252.13;6130898;22;100984;-77
2022/03/01 02:40:10;;;;;;;50.43;20.87;;;;;;;1.70;52.17;102263.63;6130225;22;96625;-77
2022/03/01 02:42:37;;;;;;;43.67;20.83;;;;;;;1.61;51.95;102248.69;6130899;22;96772;-77
2022/03/01 02:45:05;;;;;;;46.10;20.80;;;;;;;1.70;51.88;102258.47;6129670;22;101232;-77
2022/03/01 02:47:30;;;;;;;44.63;20.57;;;;;;;1.59;51.90;102251.19;6105802;22;101449;-78
2022/03/01 02:49:56;;;;;;;46.90;20.93;;;;;;;1.52;52.27;102256.13;6130503;22;96971;-77
2022/03/01 02:52:22;;;;;;;46.83;21.10;;;;;;;1.57;52.39;102259.75;6130496;22;96743;-77
2022/03/01 02:54:47;;;;;;;42.43;19.97;;;;;;;1.55;52.36;102254.53;6105476;22;100861;-77
2022/03/01 02:57:13;;;;;;;43.07;21.10;;;;;;;1.57;52.52;102257.16;6105528;22;101634;-77
2022/03/01 02:59:39;;;;;;;43.87;20.30;;;;;;;1.57;52.17;102264.91;6129095;22;97163;-78
2022/03/01 03:02:04;;;;;;;52.23;20.77;;;;;;;1.61;52.58;102265.91;6130110;22;96964;-82
2022/03/01 03:04:30;;;;;;;45.77;20.70;;;;;;;1.57;52.26;102250.28;6129815;22;98224;-77
2022/03/01 03:06:56;;;;;;;41.40;20.73;;;;;;;1.57;52.84;102264.91;6105121;22;100644;-79
2022/03/01 03:09:22;;;;;;;46.40;21.10;;;;;;;1.50;52.98;102260.38;6129503;22;97068;-77
2022/03/01 03:11:47;;;;;;;43.00;19.90;;;;;;;1.47;52.45;102249.91;6131160;22;96874;-77
2022/03/01 03:14:13;;;;;;;42.30;20.77;;;;;;;1.12;52.97;102208.19;6129021;22;101272;-77
2022/03/01 03:16:39;;;;;;;43.83;20.13;;;;;;;1.40;52.97;102260.88;6129986;22;100990;-77
2022/03/01 03:19:04;;;;;;;43.07;20.10;;;;;;;1.42;52.78;102251.47;6129989;22;96781;-77
2022/03/01 03:21:30;;;;;;;40.67;19.60;;;;;;;1.45;53.23;102257.63;6105351;22;96825;-78
2022/03/01 03:23:55;;;;;;;44.50;21.37;;;;;;;1.46;52.95;102255.94;6155453;22;97842;-76
2022/03/01 03:26:21;;;;;;;45.00;22.57;;;;;;;1.41;52.75;102253.19;6130587;22;101341;-78
2022/03/01 03:28:46;;;;;;;47.67;24.23;;;;;;;1.44;53.38;102249.81;6130439;22;96694;-77
2022/03/01 03:31:12;;;;;;;52.37;24.43;;;;;;;1.43;52.88;102246.34;6155892;22;96742;-77
2022/03/01 03:33:39;;;;;;;50.67;22.93;;;;;;;1.36;53.36;102249.53;6129979;22;101491;-77
2022/03/01 03:36:04;;;;;;;48.80;22.00;;;;;;;1.30;53.73;102254.50;6130687;22;101205;-77
2022/03/01 03:38:30;;;;;;;46.87;21.80;;;;;;;1.34;53.08;102252.09;6155335;22;96926;-77
2022/03/01 03:40:56;;;;;;;48.03;21.90;;;;;;;1.21;53.75;102249.03;6106112;22;96826;-77
2022/03/01 03:43:21;;;;;;;48.33;21.20;;;;;;;1.18;53.72;102244.63;6129996;22;101138;-77
2022/03/01 03:45:47;;;;;;;48.57;22.83;;;;;;;1.16;53.57;102243.66;6105216;22;101148;-77
2022/03/01 03:48:13;;;;;;;51.93;22.93;;;;;;;1.15;53.61;102244.50;6155368;22;97130;-78
2022/03/01 03:50:39;;;;;;;45.03;21.37;;;;;;;1.15;53.62;102241.03;6130956;22;96661;-77
2022/03/01 03:53:04;;;;;;;44.97;21.13;;;;;;;1.17;54.16;102250.63;6130218;22;100884;-77
2022/03/01 03:55:30;;;;;;;52.93;21.23;;;;;;;1.03;54.11;102218.22;6129611;22;97266;-77
2022/03/01 03:57:56;;;;;;;48.97;22.10;;;;;;;1.20;53.52;102244.69;6129656;22;96662;-77
2022/03/01 04:00:21;;;;;;;48.43;22.40;;;;;;;1.13;53.69;102236.72;6128753;22;96981;-77
2022/03/01 04:02:48;;;;;;;51.73;21.97;;;;;;;1.05;53.89;102226.91;6128681;22;100523;-77
2022/03/01 04:05:15;;;;;;;49.80;21.87;;;;;;;1.11;54.06;102233.19;6128123;22;100732;-77
2022/03/01 04:07:41;;;;;;;50.30;23.07;;;;;;;1.08;54.27;102239.97;6129134;22;96970;-77
2022/03/01 04:10:08;;;;;;;53.30;22.20;;;;;;;1.11;54.18;102222.84;6128834;22;96779;-84
2022/03/01 04:12:34;;;;;;;48.60;22.87;;;;;;;1.15;53.63;102223.81;6103685;22;100223;-77
2022/03/01 04:15:00;;;;;;;55.30;23.20;;;;;;;1.17;53.80;102219.59;6129299;22;97327;-76
2022/03/01 04:17:26;;;;;;;50.90;23.90;;;;;;;1.18;54.25;102213.56;6154022;22;96989;-77
2022/03/01 04:19:52;;;;;;;47.70;21.50;;;;;;;1.13;54.31;102218.59;6129827;22;96831;-77
2022/03/01 04:22:18;;;;;;;52.17;23.87;;;;;;;1.06;54.05;102205.38;6129134;22;97383;-77
2022/03/01 04:24:43;;;;;;;51.77;23.20;;;;;;;1.04;54.60;102209.63;6129309;22;101121;-77
2022/03/01 04:27:09;;;;;;;53.00;23.77;;;;;;;1.00;54.62;102213.81;6155583;22;96500;-82
2022/03/01 04:29:35;;;;;;;49.87;22.73;;;;;;;1.00;54.54;102212.94;6130305;22;96747;-77
2022/03/01 04:32:01;;;;;;;55.03;23.03;;;;;;;1.03;55.08;102202.69;6154671;22;98083;-77
2022/03/01 04:34:27;;;;;;;50.67;24.27;;;;;;;0.93;54.78;102198.00;6104437;22;101207;-77
2022/03/01 04:36:52;;;;;;;44.13;21.20;;;;;;;0.94;54.60;102200.66;6155496;22;96916;-78
2022/03/01 04:39:18;;;;;;;47.37;22.03;;;;;;;0.84;54.83;102176.19;6130217;22;97317;-77
2022/03/01 04:41:44;;;;;;;49.83;22.27;;;;;;;1.01;54.56;102209.50;6105367;22;101072;-77
2022/03/01 04:44:09;;;;;;;53.10;22.17;;;;;;;0.95;54.49;102189.50;6129427;22;101804;-83
2022/03/01 04:46:35;;;;;;;47.00;21.27;;;;;;;1.06;54.67;102202.81;6129152;22;96656;-77
2022/03/01 04:49:01;;;;;;;47.37;22.87;;;;;;;1.12;54.71;102200.44;6129730;22;97036;-77
2022/03/01 04:51:26;;;;;;;50.77;22.50;;;;;;;1.09;54.80;102201.19;6154528;22;97608;-77
2022/03/01 04:53:52;;;;;;;52.83;23.67;;;;;;;1.03;55.12;102201.00;6129458;22;101549;-77
2022/03/01 04:56:18;;;;;;;49.30;22.93;;;;;;;1.06;54.34;102197.63;6129874;22;96754;-77
2022/03/01 04:58:44;;;;;;;48.97;22.60;;;;;;;0.98;54.12;102187.00;6105472;22;97013;-77
2022/03/01 05:01:09;;;;;;;52.53;22.27;;;;;;;1.00;54.78;102200.88;6154753;22;101622;-82
2022/03/01 05:03:35;;;;;;;46.97;22.43;;;;;;;0.99;55.10;102193.97;6129622;22;101158;-77
2022/03/01 05:06:00;;;;;;;50.57;23.50;;;;;;;0.93;55.21;102191.13;6105027;22;97205;-77
2022/03/01 05:08:30;;;;;;;59.27;24.63;;;;;;;0.98;54.86;102196.47;6129227;22;97029;-78
2022/03/01 05:11:00;;;;;;;49.77;23.87;;;;;;;0.80;54.28;102152.75;6153414;22;97485;-77
2022/03/01 05:13:25;;;;;;;49.00;23.83;;;;;;;0.68;55.04;102141.16;6103363;22;101325;-80
2022/03/01 05:15:51;;;;;;;49.60;22.90;;;;;;;0.85;54.97;102180.53;6129277;22;96627;-77
2022/03/01 05:18:16;;;;;;;51.77;23.10;;;;;;;0.83;55.35;102192.53;6104111;22;96860;-80
2022/03/01 05:20:42;;;;;;;69.77;25.63;;;;;;;0.79;55.36;102185.50;6154092;22;97785;-77
2022/03/01 05:23:08;;;;;;;50.67;22.77;;;;;;;0.72;55.50;102174.88;6181505;22;97211;-77
2022/03/01 05:25:33;;;;;;;52.10;23.90;;;;;;;0.59;55.76;102158.06;6130661;22;96687;-77
2022/03/01 05:27:59;;;;;;;48.93;22.33;;;;;;;0.70;55.37;102180.00;6156853;22;96703;-77
2022/03/01 05:30:25;;;;;;;52.90;23.63;;;;;;;0.70;55.71;102174.84;6129652;22;101692;-77
2022/03/01 05:32:52;;;;;;;59.37;23.73;;;;;;;0.67;55.35;102177.31;6130678;22;101149;-77
2022/03/01 05:35:22;;;;;;;53.27;23.73;;;;;;;0.66;55.85;102179.00;6129476;22;97519;-80
2022/03/01 05:37:49;;;;;;;58.63;23.30;;;;;;;0.71;55.44;102181.75;6105136;22;96854;-78
2022/03/01 05:40:16;;;;;;;51.70;23.10;;;;;;;0.69;55.41;102175.63;6129306;22;100926;-77
2022/03/01 05:42:42;;;;;;;66.67;25.40;;;;;;;0.64;55.97;102175.50;6129836;22;100962;-77
2022/03/01 05:45:08;;;;;;;63.03;22.80;;;;;;;0.63;55.73;102188.34;6130790;22;97190;-79
2022/03/01 05:47:34;;;;;;;62.70;24.40;;;;;;;0.64;56.25;102197.84;6105690;22;97049;-79
2022/03/01 05:50:00;;;;;;;52.63;23.20;;;;;;;0.50;56.32;102153.44;6155160;22;97800;-79
2022/03/01 05:52:25;;;;;;;55.77;23.47;;;;;;;0.40;56.58;102148.75;6130431;22;97309;-77
2022/03/01 05:54:51;;;;;;;55.93;23.80;;;;;;;0.62;56.82;102195.22;6104279;22;96685;-77
2022/03/01 05:57:17;;;;;;;45.90;22.23;;;;;;;0.66;56.58;102193.63;6129579;22;96940;-78
2022/03/01 05:59:42;;;;;;;43.43;22.07;;;;;;;0.59;55.79;102164.09;6128651;22;97949;-79
2022/03/01 06:02:08;;;;;;;54.73;22.60;;;;;;;0.82;55.93;102195.06;6129447;22;101061;-78
2022/03/01 06:04:35;;;;;;;56.03;22.40;;;;;;;0.80;56.33;102200.16;6153617;22;97190;-80
2022/03/01 06:07:00;;;;;;;48.20;22.47;;;;;;;0.79;56.22;102198.41;6106571;22;96992;-83
2022/03/01 06:09:26;;;;;;;49.90;23.33;;;;;;;0.79;56.60;102208.75;6127780;22;101188;-83
2022/03/01 06:11:51;;;;;;;67.37;24.73;;;;;;;0.85;56.34;102203.81;6155917;22;97771;-80
2022/03/01 06:14:17;;;;;;;60.37;24.70;;;;;;;0.91;56.55;102213.50;6130621;22;96927;-80
2022/03/01 06:16:44;;;;;;;56.43;25.87;;;;;;;0.86;56.46;102196.94;6106615;22;96924;-82
2022/03/01 06:19:10;;;;;;;54.00;24.53;;;;;;;0.87;56.66;102190.91;6129936;22;97334;-80
2022/03/01 06:21:36;;;;;;;52.97;25.50;;;;;;;1.06;56.45;102207.97;6152271;22;97684;-81
2022/03/01 06:24:04;;;;;;;52.17;23.07;;;;;;;1.07;56.80;102202.84;6128050;22;96986;-80
2022/03/01 06:26:30;;;;;;;56.00;23.23;;;;;;;1.23;56.98;102214.63;6129421;22;96769;-82
2022/03/01 06:28:55;;;;;;;54.67;24.10;;;;;;;1.23;56.55;102188.75;6103748;22;101288;-83
2022/03/01 06:31:21;;;;;;;51.80;24.17;;;;;;;1.20;56.31;102185.19;6154557;22;97848;-84
2022/03/01 06:33:46;;;;;;;51.80;24.43;;;;;;;1.49;55.95;102201.69;6105234;22;96945;-86
2022/03/01 06:36:12;;;;;;;56.20;26.13;;;;;;;1.50;56.17;102186.19;6130384;22;96752;-82
2022/03/01 06:38:38;;;;;;;52.47;23.70;;;;;;;1.44;55.84;102147.16;6129702;22;98508;-84
2022/03/01 06:41:04;;;;;;;56.60;24.70;;;;;;;1.91;55.84;102201.28;6129640;22;99961;-84
2022/03/01 06:43:29;;;;;;;66.93;29.33;;;;;;;2.03;55.13;102201.66;6130974;22;96660;-86
2022/03/01 06:45:55;;;;;;;54.60;26.77;;;;;;;2.13;54.68;102195.94;6106705;22;96782;-87
2022/03/01 06:48:20;;;;;;;51.33;23.60;;;;;;;2.23;54.41;102194.50;6097008;22;101534;-86
2022/03/01 06:50:46;;;;;;;54.20;23.37;;;;;;;2.37;54.16;102185.41;6126684;22;101200;-86
2022/03/01 06:53:13;;;;;;;45.00;21.63;;;;;;;2.44;53.89;102182.19;6129061;22;96712;-85
2022/03/01 06:55:42;;;;;;;52.57;23.33;;;;;;;2.29;53.79;102141.97;6103438;22;96731;-85
2022/03/01 06:58:08;;;;;;;49.50;22.93;;;;;;;2.58;53.53;102166.13;6127182;22;97913;-86
2022/03/01 07:00:34;;;;;;;50.37;22.23;;;;;;;2.97;53.17;102197.50;6126516;22;100870;-86
2022/03/01 07:03:00;;;;;;;47.47;21.70;;;;;;;3.04;52.54;102180.34;6103061;22;96613;-86
2022/03/01 07:05:25;;;;;;;49.50;23.43;;;;;;;3.16;51.57;102183.28;6128573;22;96947;-86
2022/03/01 07:07:51;;;;;;;53.53;24.47;;;;;;;3.37;51.46;102185.53;6129132;22;101381;-86
2022/03/01 07:10:16;;;;;;;41.17;20.67;;;;;;;3.32;51.72;102180.25;6107590;22;100451;-84
2022/03/01 07:12:43;;;;;;;54.67;23.87;;;;;;;3.33;51.16;102169.00;6151933;22;96256;-84
2022/03/01 07:15:10;;;;;;;52.63;25.27;;;;;;;3.58;50.98;102187.81;6137925;22;96723;-84
2022/03/01 07:17:35;;;;;;;56.97;25.87;;;;;;;3.62;50.63;102169.72;6128791;22;98067;-86
2022/03/01 07:20:01;;;;;;;50.83;24.53;;;;;;;3.86;49.75;102185.00;6153932;22;97230;-87
2022/03/01 07:22:27;;;;;;;51.57;23.00;;;;;;;4.01;49.92;102187.06;6103782;22;97185;-86
2022/03/01 07:24:52;;;;;;;57.50;25.57;;;;;;;4.08;49.76;102178.56;6153448;22;97227;-87
2022/03/01 07:27:18;;;;;;;50.73;23.80;;;;;;;4.09;49.61;102159.53;6102605;22;101214;-87
2022/03/01 07:29:43;;;;;;;48.10;24.03;;;;;;;4.44;49.25;102189.72;6128073;22;100789;-86
2022/03/01 07:32:09;;;;;;;53.83;24.50;;;;;;;4.60;49.03;102175.34;6129900;22;96985;-84
2022/03/01 07:34:35;;;;;;;46.13;23.20;;;;;;;4.84;49.13;102183.59;6128690;22;96827;-86
2022/03/01 07:37:02;;;;;;;53.80;22.57;;;;;;;5.05;48.69;102177.03;6103654;22;100965;-86
2022/03/01 07:39:27;;;;;;;45.77;22.73;;;;;;;5.25;48.00;102175.66;6103538;22;101619;-84
2022/03/01 07:41:53;;;;;;;47.03;22.80;;;;;;;5.39;47.71;102170.69;6156650;22;96638;-85
2022/03/01 07:44:19;;;;;;;49.37;22.90;;;;;;;5.59;46.95;102168.44;6105609;22;96811;-86
2022/03/01 07:46:45;;;;;;;44.97;20.33;;;;;;;5.71;46.89;102170.34;6154027;22;98009;-87
2022/03/01 07:49:10;;;;;;;36.77;18.93;;;;;;;5.88;46.44;102185.38;6103991;22;101693;-88
2022/03/01 07:51:36;;;;;;;44.40;22.23;;;;;;;6.03;46.37;102163.91;6102487;22;97047;-88
2022/03/01 07:54:02;;;;;;;53.60;25.43;;;;;;;6.35;45.80;102174.75;6098623;22;97149;-88
2022/03/01 07:56:27;;;;;;;44.87;20.07;;;;;;;6.56;45.07;102165.44;6129087;22;99878;-88
2022/03/01 07:58:53;;;;;;;59.93;29.70;;;;;;;6.68;44.94;102160.34;6129030;22;99308;-88
2022/03/01 08:01:19;;;;;;;39.53;19.80;;;;;;;6.96;44.06;102176.34;6154427;22;96579;-87
2022/03/01 08:03:45;;;;;;;45.27;19.63;;;;;;;7.09;44.26;102187.75;6103153;22;97267;-90
2022/03/01 08:06:11;;;;;;;41.00;18.63;;;;;;;7.22;43.17;102185.31;6131149;22;98447;-87
2022/03/01 08:08:37;;;;;;;41.03;21.30;;;;;;;7.25;42.81;102168.78;6104776;22;99729;-87
2022/03/01 08:11:04;;;;;;;46.33;20.33;;;;;;;7.32;42.87;102174.94;6131786;22;96679;-88
2022/03/01 08:13:31;;;;;;;42.78;21.23;;;;;;;7.11;42.58;102145.13;6107345;22;96671;-89
2022/03/01 08:15:56;;;;;;;50.87;23.37;;;;;;;7.24;43.08;102164.41;6156575;22;97792;-87
2022/03/01 08:18:22;;;;;;;49.00;24.75;;;;;;;7.35;43.01;102164.50;6129844;22;97990;-86
2022/03/01 08:20:48;;;;;;;46.63;23.43;;;;;;;7.52;43.17;102152.44;6130425;22;96783;-88
2022/03/01 08:23:13;;;;;;;46.67;21.83;;;;;;;7.80;42.15;102163.13;6155791;22;96577;-84
2022/03/01 08:25:39;;;;;;;40.67;21.35;;;;;;;8.00;42.41;102158.88;6153492;22;99420;-84
2022/03/01 08:28:04;;;;;;;39.92;20.80;;;;;;;8.20;41.80;102172.03;6130405;22;99910;-82
2022/03/01 08:30:31;;;;;;;39.13;19.17;;;;;;;8.28;41.02;102165.13;6128652;22;96684;-86
2022/03/01 08:32:57;;;;;;;37.10;19.73;;;;;;;8.34;40.61;102159.03;6153208;22;98059;-85
2022/03/01 08:35:23;;;;;;;38.47;20.08;;;;;;;8.15;40.25;102145.88;6127890;22;98310;-84
2022/03/01 08:37:50;;;;;;;35.70;19.35;;;;;;;8.24;40.85;102137.19;6128214;22;101660;-85
2022/03/01 08:40:18;;;;;;;37.72;20.30;;;;;;;8.31;40.90;102122.41;6103665;22;97227;-85
2022/03/01 08:42:44;;;;;;;42.65;21.80;;;;;;;8.86;40.16;102154.00;6128980;22;97041;-84
2022/03/01 08:45:10;;;;;;;37.95;20.73;;;;;;;8.99;40.22;102128.75;6103837;22;101762;-85
2022/03/01 08:47:36;;;;;;;38.25;19.52;;;;;;;9.32;39.70;102129.63;6103803;22;99740;-85
2022/03/01 08:50:03;;;;;;;31.30;17.70;;;;;;;9.49;38.96;102147.09;6125874;22;96828;-87
2022/03/01 08:52:28;;;;;;;33.72;17.92;;;;;;;9.46;38.47;102146.22;6127378;22;96833;-85
2022/03/01 08:54:54;;;;;;;33.90;20.27;;;;;;;9.59;39.03;102147.06;6097715;22;101712;-84
2022/03/01 08:57:19;;;;;;;35.33;20.42;;;;;;;9.29;38.73;102117.38;6096960;22;101491;-85
2022/03/01 08:59:45;;;;;;;37.35;18.90;;;;;;;9.67;38.73;102145.31;6098824;22;96776;-84
2022/03/01 09:02:11;;;;;;;37.17;19.92;;;;;;;9.89;38.30;102144.41;6126510;22;96811;-85
2022/03/01 09:04:36;;;;;;;29.85;18.73;;;;;;;9.56;38.68;102116.47;6124229;22;100957;-85
2022/03/01 09:07:05;;;;;;;30.95;17.80;;;;;;;9.90;38.51;102112.03;6126171;22;100272;-85
2022/03/01 09:09:31;;;;;;;33.80;19.98;;;;;;;10.31;37.88;102133.81;6125824;22;97232;-85
2022/03/01 09:11:58;;;;;;;34.03;19.85;;;;;;;10.45;37.35;102111.00;6126967;22;96898;-85
2022/03/01 09:14:23;;;;;;;36.50;20.83;;;;;;;10.62;37.32;102124.91;6125342;22;98509;-83
2022/03/01 09:16:49;;;;;;;28.52;17.33;;;;;;;10.79;36.98;102130.06;6126255;22;97416;-85
2022/03/01 09:19:15;;;;;;;33.20;18.92;;;;;;;11.01;36.75;102129.91;6126134;22;96710;-86
2022/03/01 09:21:42;;;;;;;27.70;17.58;;;;;;;10.74;36.41;102074.06;6100864;22;96821;-85
2022/03/01 09:24:07;;;;;;;29.92;17.98;;;;;;;11.05;36.05;102116.75;6101744;22;101380;-85
2022/03/01 09:26:33;;;;;;;27.25;16.58;;;;;;;11.02;36.13;102081.72;6100818;22;101317;-85
2022/03/01 09:28:59;;;;;;;30.00;17.75;;;;;;;11.06;36.26;102105.34;6101900;22;96647;-86
2022/03/01 09:31:25;;;;;;;31.15;19.13;;;;;;;11.09;36.14;102114.97;6101343;22;97470;-81
2022/03/01 09:33:50;;;;;;;30.63;19.15;;;;;;;11.29;35.65;102091.16;6126693;22;101408;-80
2022/03/01 09:36:16;;;;;;;26.70;17.58;;;;;;;11.45;35.58;102092.72;6154148;22;97443;-81
2022/03/01 09:38:42;;;;;;;30.38;19.05;;;;;;;11.63;35.39;102114.47;6100847;22;96679;-81
2022/03/01 09:41:08;;;;;;;29.70;18.42;;;;;;;11.63;35.50;102114.47;6128740;22;97121;-81
2022/03/01 09:43:37;;;;;;;29.20;18.88;;;;;;;11.49;35.60;102102.34;6128821;22;97620;-81
2022/03/01 09:46:04;;;;;;;29.67;18.65;;;;;;;11.70;35.15;102079.34;6154412;22;98201;-80
2022/03/01 09:48:29;;;;;;;29.05;17.65;;;;;;;11.97;34.94;102099.25;6122960;22;96639;-81
2022/03/01 09:50:57;;;;;;;31.10;19.42;;;;;;;11.94;34.74;102096.66;6147082;22;97117;-79
2022/03/01 09:53:23;;;;;;;30.13;16.98;;;;;;;12.11;35.01;102102.59;6122054;22;97379;-80
2022/03/01 09:55:51;;;;;;;27.40;17.15;;;;;;;12.23;34.71;102097.16;6121316;22;101301;-82
2022/03/01 09:58:17;;;;;;;24.50;15.70;;;;;;;12.34;34.82;102098.78;6122907;22;97151;-83
2022/03/01 10:00:45;;;;;;;23.70;15.90;;;;;;;12.45;34.11;102100.41;6121288;22;96664;-84
2022/03/01 10:03:15;;;;;;;24.85;15.82;;;;;;;12.16;34.07;102103.41;6121438;22;101124;-83
2022/03/01 10:05:42;;;;;;;24.42;15.40;;;;;;;11.76;34.31;102087.16;6119063;22;101780;-80
2022/03/01 10:08:20;;;;;;;24.95;14.73;;;;;;;12.05;34.27;102114.94;6098166;22;96982;-79
2022/03/01 10:10:48;;;;;;;26.25;16.75;;;;;;;11.80;34.18;102094.13;6122701;22;96729;-76
2022/03/01 10:13:21;;;;;;;21.45;13.90;;;;;;;11.75;34.11;102095.94;6148299;22;101760;-77
2022/03/01 10:15:47;;;;;;;24.73;14.57;;;;;;;11.60;34.05;102082.94;6122349;22;101489;-76
2022/03/01 10:18:15;;;;;;;17.85;12.43;;;;;;;11.50;34.07;102096.19;6123864;22;97126;-75
2022/03/01 10:20:44;;;;;;;20.80;12.63;;;;;;;11.53;34.11;102093.53;6124329;22;97002;-76
2022/03/01 10:23:10;;;;;;;24.45;13.60;;;;;;;11.49;34.34;102086.56;6124696;22;97371;-77
2022/03/01 10:25:37;;;;;;;20.40;12.30;;;;;;;10.93;34.58;102060.78;6123093;22;97871;-77
2022/03/01 10:28:03;;;;;;;18.60;11.55;;;;;;;11.11;34.67;102065.88;6096367;22;97190;-76
2022/03/01 10:30:31;;;;;;;18.42;10.00;;;;;;;10.97;34.24;102062.50;6098065;22;97366;-76
2022/03/01 10:33:12;;;;;;;18.40;10.48;;;;;;;10.97;34.33;102078.28;6122932;22;100989;-76
2022/03/01 10:35:42;;;;;;;21.70;11.63;;;;;;;10.75;35.33;102075.78;6098836;22;101263;-77
2022/03/01 10:38:08;;;;;;;19.48;11.57;;;;;;;10.82;35.23;102069.63;6123710;22;96802;-77
2022/03/01 10:40:36;;;;;;;19.95;11.77;;;;;;;10.85;35.10;102042.47;6098455;22;96964;-77
2022/03/01 10:43:07;;;;;;;19.13;11.35;;;;;;;10.95;35.16;102056.38;6097885;22;101239;-80
2022/03/01 10:45:39;;;;;;;20.05;12.23;;;;;;;10.81;35.08;102054.72;6123838;22;97295;-80
2022/03/01 10:48:06;;;;;;;22.98;12.75;;;;;;;10.81;35.55;102044.22;6124121;22;97105;-76
2022/03/01 10:50:32;;;;;;;19.02;12.57;;;;;;;10.84;35.65;102045.94;6127761;22;96843;-77
2022/03/01 10:52:59;;;;;;;17.63;10.82;;;;;;;10.63;35.62;102034.72;6101383;22;101395;-78
2022/03/01 10:55:29;;;;;;;16.42;11.02;;;;;;;10.58;36.04;102036.50;6127056;22;97789;-76
2022/03/01 10:57:57;;;;;;;19.80;11.17;;;;;;;10.40;36.31;102029.63;6129008;22;96950;-77
2022/03/01 11:00:23;;;;;;;21.48;11.82;;;;;;;10.38;36.08;102020.00;6153821;22;97178;-80
2022/03/01 11:02:49;;;;;;;20.65;11.50;;;;;;;10.01;36.25;102024.56;6103176;22;100897;-79
2022/03/01 11:05:14;;;;;;;21.48;11.93;;;;;;;10.12;36.61;102025.38;6128955;22;100984;-76
2022/03/01 11:07:40;;;;;;;20.83;12.52;;;;;;;9.86;36.26;102010.66;6128558;22;97227;-76
2022/03/01 11:10:06;;;;;;;18.73;12.20;;;;;;;9.77;37.04;102021.16;6104361;22;96924;-76
2022/03/01 11:12:33;;;;;;;21.02;12.23;;;;;;;9.74;37.08;102016.81;6154702;22;98545;-76